createdAt,value
2019-06-20T00:01:55.247Z,1.20
2019-06-20T00:04:24.130Z,1.10
2019-06-20T00:06:52.915Z,1.30
2019-06-20T00:09:21.657Z,1.17
2019-06-20T00:11:50.473Z,1.10
2019-06-20T00:14:19.189Z,1.30
2019-06-20T00:16:48.135Z,1.30
2019-06-20T00:19:17.071Z,1.10
2019-06-20T00:21:45.793Z,1.12
2019-06-20T00:24:15.026Z,1.30
2019-06-20T00:26:43.759Z,1.22
2019-06-20T00:29:12.462Z,1.40
2019-06-20T00:31:41.711Z,0.90
2019-06-20T00:34:10.411Z,1.20
2019-06-20T00:36:39.105Z,1.10
2019-06-20T00:39:08.211Z,1.47
2019-06-20T00:41:37.414Z,1.27
2019-06-20T00:44:06.202Z,1.57
2019-06-20T00:46:34.944Z,1.45
2019-06-20T00:49:55.652Z,1.20
2019-06-20T00:52:24.356Z,1.40
2019-06-20T00:54:53.278Z,1.35
2019-06-20T00:57:22.362Z,1.42
2019-06-20T00:59:51.350Z,1.22
2019-06-20T01:02:20.160Z,1.05
2019-06-20T01:04:48.968Z,1.22
2019-06-20T01:07:17.735Z,0.90
2019-06-20T01:09:46.440Z,1.15
2019-06-20T01:12:15.229Z,1.35
2019-06-20T01:14:43.935Z,0.93
2019-06-20T01:17:12.867Z,0.82
2019-06-20T01:19:41.767Z,1.12
2019-06-20T01:22:10.578Z,1.22
2019-06-20T01:24:39.327Z,1.27
2019-06-20T01:27:08.021Z,1.12
2019-06-20T01:29:36.743Z,1.10
2019-06-20T01:32:05.523Z,1.10
2019-06-20T01:34:34.203Z,1.02
2019-06-20T01:37:02.982Z,1.15
2019-06-20T01:39:31.663Z,1.10
2019-06-20T01:42:00.413Z,1.20
2019-06-20T01:44:29.183Z,1.12
2019-06-20T01:46:57.973Z,1.12
2019-06-20T01:49:26.945Z,1.10
2019-06-20T01:51:55.976Z,1.20
2019-06-20T01:54:24.706Z,1.22
2019-06-20T01:56:53.379Z,1.12
2019-06-20T01:59:22.327Z,1.35
2019-06-20T02:01:51.115Z,1.42
2019-06-20T02:04:20.155Z,1.20
2019-06-20T02:06:48.896Z,1.25
2019-06-20T02:09:17.623Z,1.20
2019-06-20T02:11:46.602Z,1.65
2019-06-20T02:14:15.284Z,1.50
2019-06-20T02:16:44.065Z,1.17
2019-06-20T02:19:12.829Z,1.47
2019-06-20T02:21:41.574Z,1.32
2019-06-20T02:24:10.239Z,1.75
2019-06-20T02:26:39.430Z,2.42
2019-06-20T02:29:08.143Z,1.80
2019-06-20T02:31:36.882Z,2.17
2019-06-20T02:34:05.677Z,2.02
2019-06-20T02:36:34.406Z,1.90
2019-06-20T02:39:03.786Z,2.00
2019-06-20T02:41:32.522Z,1.60
2019-06-20T02:44:01.615Z,1.55
2019-06-20T02:46:30.593Z,1.40
2019-06-20T02:48:59.349Z,1.52
2019-06-20T02:51:28.354Z,1.40
2019-06-20T02:53:57.230Z,1.30
2019-06-20T02:56:26.207Z,1.60
2019-06-20T02:58:54.938Z,1.40
2019-06-20T03:01:23.886Z,1.35
2019-06-20T03:03:52.894Z,1.35
2019-06-20T03:06:21.940Z,1.50
2019-06-20T03:08:50.771Z,1.47
2019-06-20T03:11:19.869Z,1.90
2019-06-20T03:13:48.847Z,1.35
2019-06-20T03:16:17.829Z,1.65
2019-06-20T03:18:46.823Z,1.72
2019-06-20T03:21:15.825Z,1.70
2019-06-20T03:23:44.543Z,1.60
2019-06-20T03:26:13.652Z,2.00
2019-06-20T03:28:42.643Z,1.75
2019-06-20T03:31:11.704Z,1.77
2019-06-20T03:33:40.681Z,1.90
2019-06-20T03:36:09.483Z,2.00
2019-06-20T03:38:38.216Z,1.57
2019-06-20T03:41:06.991Z,1.98
2019-06-20T03:43:35.687Z,1.75
2019-06-20T03:46:04.644Z,1.87
2019-06-20T03:48:33.592Z,1.55
2019-06-20T03:51:02.332Z,2.00
2019-06-20T03:53:31.053Z,2.45
2019-06-20T03:56:00.019Z,2.10
2019-06-20T03:58:28.804Z,1.90
2019-06-20T04:00:57.780Z,1.87
2019-06-20T04:03:26.496Z,1.90
2019-06-20T04:05:55.256Z,2.12
2019-06-20T04:08:24.147Z,1.70
2019-06-20T04:10:53.061Z,1.92
2019-06-20T04:13:21.807Z,1.87
2019-06-20T04:15:50.523Z,2.02
2019-06-20T04:18:19.303Z,1.77
2019-06-20T04:20:48.106Z,1.70
2019-06-20T04:23:17.079Z,1.85
2019-06-20T04:25:45.762Z,1.85
2019-06-20T04:28:14.712Z,1.60
2019-06-20T04:30:43.446Z,1.72
2019-06-20T04:33:12.929Z,1.72
2019-06-20T04:35:42.102Z,1.42
2019-06-20T04:38:10.806Z,1.30
2019-06-20T04:40:39.574Z,1.75
2019-06-20T04:43:08.542Z,1.30
2019-06-20T04:45:46.556Z,1.50
2019-06-20T04:48:15.763Z,1.30
2019-06-20T04:50:44.500Z,1.30
2019-06-20T04:53:13.567Z,1.30
2019-06-20T04:55:42.504Z,1.22
2019-06-20T04:58:11.592Z,1.40
2019-06-20T05:00:40.332Z,1.37
2019-06-20T05:03:09.488Z,1.32
2019-06-20T05:05:39.380Z,1.35
2019-06-20T05:08:08.316Z,1.30
2019-06-20T05:10:44.736Z,1.15
2019-06-20T05:13:13.918Z,1.25
2019-06-20T05:15:52.574Z,1.10
2019-06-20T05:18:13.863Z,1.15
2019-06-20T05:20:45.889Z,1.30
2019-06-20T05:23:14.863Z,1.30
2019-06-20T05:25:44.677Z,1.10
2019-06-20T05:28:13.830Z,1.30
2019-06-20T05:30:46.244Z,0.88
2019-06-20T05:34:03.515Z,1.05
2019-06-20T05:36:32.248Z,1.25
2019-06-20T05:39:01.303Z,1.12
2019-06-20T05:41:29.962Z,1.10
2019-06-20T05:43:59.401Z,1.25
2019-06-20T05:46:28.057Z,1.30
2019-06-20T05:48:56.925Z,1.30
2019-06-20T05:51:25.637Z,1.20
2019-06-20T05:53:54.302Z,1.10
2019-06-20T05:56:23.194Z,0.90
2019-06-20T05:58:51.860Z,1.40
2019-06-20T06:01:20.857Z,1.00
2019-06-20T06:03:49.747Z,1.42
2019-06-20T06:06:18.644Z,1.02
2019-06-20T06:08:47.312Z,1.10
2019-06-20T06:11:17.080Z,1.05
2019-06-20T06:13:45.756Z,1.02
2019-06-20T06:16:25.734Z,1.25
2019-06-20T06:18:48.477Z,1.57
2019-06-20T06:21:17.183Z,1.57
2019-06-20T06:23:47.012Z,1.15
2019-06-20T06:26:15.690Z,1.72
2019-06-20T06:28:44.627Z,1.82
2019-06-20T06:31:13.758Z,1.40
2019-06-20T06:33:42.546Z,1.55
2019-06-20T06:36:11.245Z,1.62
2019-06-20T06:38:40.196Z,1.65
2019-06-20T06:41:08.895Z,2.20
2019-06-20T06:43:41.947Z,1.67
2019-06-20T06:46:08.332Z,2.47
2019-06-20T06:48:37.035Z,2.40
2019-06-20T06:51:05.915Z,2.37
2019-06-20T06:53:34.741Z,2.37
2019-06-20T06:56:03.798Z,2.12
2019-06-20T06:58:33.082Z,2.52
2019-06-20T07:01:02.162Z,2.27
2019-06-20T07:03:31.057Z,2.45
2019-06-20T07:05:59.843Z,2.20
2019-06-20T07:08:28.621Z,2.40
2019-06-20T07:10:57.522Z,2.33
2019-06-20T07:13:26.170Z,2.10
2019-06-20T07:15:55.139Z,2.30
2019-06-20T07:18:23.840Z,2.55
2019-06-20T07:20:52.617Z,2.30
2019-06-20T07:23:21.672Z,2.42
2019-06-20T07:25:50.480Z,2.10
2019-06-20T07:28:20.319Z,1.98
2019-06-20T07:30:49.387Z,1.85
2019-06-20T07:33:18.426Z,1.95
2019-06-20T07:35:47.508Z,1.62
2019-06-20T07:38:16.540Z,2.05
2019-06-20T07:40:45.795Z,1.70
2019-06-20T07:43:14.586Z,1.70
2019-06-20T07:45:43.344Z,1.67
2019-06-20T07:48:12.368Z,1.80
2019-06-20T07:50:41.142Z,1.85
2019-06-20T07:53:09.938Z,1.87
2019-06-20T07:55:38.688Z,1.90
2019-06-20T07:58:07.606Z,1.57
2019-06-20T08:00:37.015Z,1.95
2019-06-20T08:03:05.773Z,2.00
2019-06-20T08:05:34.566Z,2.45
2019-06-20T08:08:03.361Z,1.80
2019-06-20T08:10:32.070Z,2.10
2019-06-20T08:13:01.379Z,2.00
2019-06-20T08:15:30.262Z,2.10
2019-06-20T08:17:59.036Z,1.70
2019-06-20T08:20:28.181Z,2.05
2019-06-20T08:22:57.310Z,2.00
2019-06-20T08:25:26.183Z,1.90
2019-06-20T08:27:56.035Z,1.90
2019-06-20T08:30:29.635Z,2.22
2019-06-20T08:33:00.161Z,2.08
2019-06-20T08:35:31.733Z,2.12
2019-06-20T08:38:03.470Z,1.50
2019-06-20T08:40:39.065Z,1.87
2019-06-20T08:43:07.966Z,1.80
2019-06-20T08:45:37.764Z,1.67
2019-06-20T08:48:07.444Z,1.52
2019-06-20T08:50:36.791Z,1.40
2019-06-20T08:53:06.008Z,1.90
2019-06-20T08:55:35.015Z,1.62
2019-06-20T08:58:05.454Z,1.70
2019-06-20T09:00:36.961Z,1.60
2019-06-20T09:03:07.260Z,1.55
2019-06-20T09:05:36.219Z,1.92
2019-06-20T09:08:05.495Z,1.75
2019-06-20T09:10:37.974Z,1.50
2019-06-20T09:13:08.113Z,1.20
2019-06-20T09:15:37.086Z,1.47
2019-06-20T09:18:06.281Z,1.20
2019-06-20T09:20:35.364Z,1.57
2019-06-20T09:23:04.193Z,1.55
2019-06-20T09:25:33.028Z,1.32
2019-06-20T09:28:02.666Z,1.40
2019-06-20T09:30:31.647Z,1.47
2019-06-20T09:33:00.593Z,1.50
2019-06-20T09:35:29.741Z,1.70
2019-06-20T09:37:59.326Z,1.62
2019-06-20T09:40:28.724Z,1.27
2019-06-20T09:42:58.712Z,1.30
2019-06-20T09:45:27.851Z,1.77
2019-06-20T09:47:56.570Z,1.70
2019-06-20T09:50:25.762Z,1.40
2019-06-20T09:52:54.920Z,1.80
2019-06-20T09:55:25.088Z,1.95
2019-06-20T09:57:53.997Z,1.60
2019-06-20T10:00:26.003Z,1.90
2019-06-20T10:02:56.247Z,1.77
2019-06-20T10:05:26.085Z,2.02
2019-06-20T10:07:56.468Z,1.92
2019-06-20T10:10:29.291Z,1.90
2019-06-20T10:12:58.326Z,1.80
2019-06-20T10:15:29.331Z,2.00
2019-06-20T10:17:58.483Z,1.85
2019-06-20T10:20:27.646Z,2.17
2019-06-20T10:22:57.471Z,2.30
2019-06-20T10:25:26.526Z,1.92
2019-06-20T10:27:55.515Z,2.15
2019-06-20T10:30:25.045Z,1.80
2019-06-20T10:32:53.810Z,2.00
2019-06-20T10:35:22.583Z,2.20
2019-06-20T10:37:52.773Z,1.50
2019-06-20T10:40:23.673Z,1.55
2019-06-20T10:42:53.190Z,1.57
2019-06-20T10:45:24.606Z,1.32
2019-06-20T10:47:54.223Z,1.32
2019-06-20T10:50:23.920Z,1.27
2019-06-20T10:52:52.718Z,1.25
2019-06-20T10:55:21.948Z,1.22
2019-06-20T10:57:51.920Z,1.07
2019-06-20T11:00:30.718Z,1.47
2019-06-20T11:02:52.135Z,1.40
2019-06-20T11:05:21.535Z,1.40
2019-06-20T11:07:50.291Z,1.35
2019-06-20T11:10:19.713Z,1.40
2019-06-20T11:12:54.902Z,1.60
2019-06-20T11:15:20.951Z,1.77
2019-06-20T11:17:49.665Z,1.37
2019-06-20T11:20:18.979Z,1.27
2019-06-20T11:22:48.061Z,1.50
2019-06-20T11:25:19.301Z,1.55
2019-06-20T11:27:47.821Z,1.32
2019-06-20T11:30:20.059Z,1.57
2019-06-20T11:32:49.263Z,1.40
2019-06-20T11:35:18.129Z,1.65
2019-06-20T11:37:47.349Z,1.50
2019-06-20T11:40:16.504Z,1.32
2019-06-20T11:42:46.722Z,1.55
2019-06-20T11:45:17.531Z,1.57
2019-06-20T11:47:47.751Z,1.60
2019-06-20T11:50:17.587Z,2.15
2019-06-20T11:52:46.386Z,2.02
2019-06-20T11:55:15.773Z,1.47
2019-06-20T11:57:44.669Z,1.52
2019-06-20T12:00:14.948Z,1.72
2019-06-20T12:02:44.221Z,1.62
2019-06-20T12:05:14.969Z,1.70
2019-06-20T12:07:45.506Z,1.15
2019-06-20T12:10:15.310Z,1.20
2019-06-20T12:12:46.900Z,1.30
2019-06-20T12:15:16.638Z,1.20
2019-06-20T12:17:47.048Z,1.12
2019-06-20T12:20:18.402Z,1.05
2019-06-20T12:22:50.497Z,1.52
2019-06-20T12:25:18.668Z,1.30
2019-06-20T12:27:49.772Z,1.20
2019-06-20T12:30:19.717Z,1.30
2019-06-20T12:32:49.429Z,1.50
2019-06-20T12:35:19.033Z,1.20
2019-06-20T12:37:48.181Z,1.27
2019-06-20T12:40:18.987Z,1.12
2019-06-20T12:42:49.119Z,0.93
2019-06-20T12:45:18.794Z,1.05
2019-06-20T12:47:47.608Z,1.07
2019-06-20T12:50:18.003Z,1.40
2019-06-20T12:52:47.693Z,1.52
2019-06-20T12:55:16.749Z,1.20
2019-06-20T12:57:46.324Z,1.02
2019-06-20T13:00:16.354Z,1.20
2019-06-20T13:02:45.757Z,1.12
2019-06-20T13:05:15.182Z,1.20
2019-06-20T13:07:44.377Z,1.07
2019-06-20T13:10:14.769Z,1.15
2019-06-20T13:12:44.326Z,1.10
2019-06-20T13:15:13.726Z,1.00
2019-06-20T13:17:43.712Z,1.02
2019-06-20T13:20:15.354Z,1.00
2019-06-20T13:22:44.807Z,1.17
2019-06-20T13:25:13.968Z,1.02
2019-06-20T13:27:43.436Z,1.17
2019-06-20T13:30:12.940Z,1.40
2019-06-20T13:32:43.318Z,1.40
2019-06-20T13:35:13.918Z,1.07
2019-06-20T13:37:43.532Z,1.02
2019-06-20T13:40:13.755Z,1.22
2019-06-20T13:42:44.028Z,1.20
2019-06-20T13:45:19.980Z,1.62
2019-06-20T13:47:49.910Z,1.02
2019-06-20T13:50:19.662Z,1.00
2019-06-20T13:52:49.745Z,1.10
2019-06-20T13:55:19.213Z,1.10
2019-06-20T13:57:49.247Z,1.25
2019-06-20T14:00:22.642Z,1.52
2019-06-20T14:02:51.862Z,1.17
2019-06-20T14:05:21.162Z,1.40
2019-06-20T14:07:53.552Z,1.20
2019-06-20T14:10:20.934Z,1.60
2019-06-20T14:12:50.418Z,1.40
2019-06-20T14:15:19.281Z,1.37
2019-06-20T14:17:49.647Z,1.67
2019-06-20T14:20:19.514Z,1.55
2019-06-20T14:22:49.503Z,1.90
2019-06-20T14:25:20.059Z,2.10
2019-06-20T14:27:49.888Z,1.80
2019-06-20T14:30:21.121Z,1.90
2019-06-20T14:32:51.443Z,1.60
2019-06-20T14:35:21.365Z,1.92
2019-06-20T14:37:51.833Z,1.90
2019-06-20T14:40:21.942Z,1.75
2019-06-20T14:42:52.355Z,1.77
2019-06-20T14:45:21.954Z,1.92
2019-06-20T14:47:52.328Z,2.30
2019-06-20T14:50:21.999Z,1.60
2019-06-20T14:52:52.222Z,1.60
2019-06-20T14:55:21.728Z,1.65
2019-06-20T14:57:52.311Z,1.65
2019-06-20T15:00:22.913Z,2.10
2019-06-20T15:02:56.161Z,2.00
2019-06-20T15:05:22.895Z,2.08
2019-06-20T15:07:53.853Z,2.00
2019-06-20T15:10:23.029Z,2.02
2019-06-20T15:12:53.411Z,2.05
2019-06-20T15:15:23.056Z,2.30
2019-06-20T15:17:54.049Z,2.30
2019-06-20T15:20:22.687Z,2.15
2019-06-20T15:22:52.765Z,2.15
2019-06-20T15:25:21.654Z,2.12
2019-06-20T15:27:53.148Z,2.10
2019-06-20T15:30:21.108Z,2.08
2019-06-20T15:33:01.924Z,1.87
2019-06-20T15:35:20.484Z,1.87
2019-06-20T15:37:50.232Z,2.45
2019-06-20T15:40:19.807Z,1.82
2019-06-20T15:42:49.646Z,1.80
2019-06-20T15:45:19.203Z,1.95
2019-06-20T15:47:47.972Z,1.90
2019-06-20T15:50:17.386Z,1.50
2019-06-20T15:52:46.243Z,1.65
2019-06-20T15:55:18.276Z,1.70
2019-06-20T15:57:47.247Z,1.60
2019-06-20T16:00:16.647Z,1.42
2019-06-20T16:02:45.593Z,1.50
2019-06-20T16:05:14.589Z,1.02
2019-06-20T16:07:43.579Z,1.30
2019-06-20T16:10:12.946Z,1.32
2019-06-20T16:12:41.651Z,1.62
2019-06-20T16:15:11.904Z,1.67
2019-06-20T16:17:40.843Z,1.40
2019-06-20T16:20:12.381Z,1.30
2019-06-20T16:22:41.157Z,1.20
2019-06-20T16:25:25.139Z,1.87
2019-06-20T16:27:53.880Z,1.40
2019-06-20T16:30:22.907Z,1.50
2019-06-20T16:32:52.797Z,1.35
2019-06-20T16:35:21.627Z,1.57
2019-06-20T16:37:55.567Z,1.30
2019-06-20T16:40:33.232Z,1.75
2019-06-20T16:43:01.977Z,1.32
2019-06-20T16:45:34.097Z,1.60
2019-06-20T16:48:02.790Z,1.52
2019-06-20T16:50:31.681Z,1.42
2019-06-20T16:53:01.341Z,1.65
2019-06-20T16:55:30.323Z,1.15
2019-06-20T16:57:59.056Z,1.45
2019-06-20T17:00:28.007Z,1.10
2019-06-20T17:02:57.052Z,1.50
2019-06-20T17:05:25.947Z,1.27
2019-06-20T17:07:54.879Z,1.50
2019-06-20T17:10:23.741Z,1.47
2019-06-20T17:12:52.503Z,1.12
2019-06-20T17:15:22.277Z,1.80
2019-06-20T17:17:51.789Z,1.10
2019-06-20T17:20:21.111Z,1.80
2019-06-20T17:22:49.839Z,1.50
2019-06-20T17:25:18.672Z,1.50
2019-06-20T17:27:47.482Z,1.72
2019-06-20T17:30:17.337Z,1.52
2019-06-20T17:32:55.879Z,1.80
2019-06-20T17:35:24.739Z,1.92
2019-06-20T17:37:53.637Z,1.62
2019-06-20T17:40:22.914Z,1.70
2019-06-20T17:42:51.605Z,1.57
2019-06-20T17:45:21.565Z,1.70
2019-06-20T17:47:50.571Z,1.67
2019-06-20T17:50:19.519Z,1.60
2019-06-20T17:52:48.525Z,1.70
2019-06-20T17:55:18.627Z,1.65
2019-06-20T17:57:47.654Z,1.70
2019-06-20T18:00:17.089Z,1.57
2019-06-20T18:02:45.902Z,1.40
2019-06-20T18:05:16.455Z,1.62
2019-06-20T18:07:48.329Z,1.65
2019-06-20T18:10:17.666Z,1.62
2019-06-20T18:12:58.366Z,1.62
2019-06-20T18:15:27.184Z,2.10
2019-06-20T18:17:55.893Z,1.37
2019-06-20T18:20:43.510Z,1.57
2019-06-20T18:23:40.585Z,1.98
2019-06-20T18:26:44.536Z,1.60
2019-06-20T18:29:13.666Z,1.47
2019-06-20T18:31:42.842Z,1.65
2019-06-20T18:34:11.551Z,1.70
2019-06-20T18:36:43.364Z,1.60
2019-06-20T18:39:10.969Z,1.72
2019-06-20T18:41:40.069Z,1.80
2019-06-20T18:44:08.794Z,1.60
2019-06-20T18:46:37.796Z,1.67
2019-06-20T18:49:06.532Z,1.77
2019-06-20T18:51:35.659Z,1.32
2019-06-20T18:54:04.875Z,1.82
2019-06-20T18:56:33.761Z,1.80
2019-06-20T18:59:02.842Z,1.60
2019-06-20T19:01:31.696Z,1.87
2019-06-20T19:04:00.714Z,2.00
2019-06-20T19:06:36.080Z,1.80
2019-06-20T19:09:00.052Z,2.02
2019-06-20T19:11:29.097Z,1.70
2019-06-20T19:13:57.912Z,1.82
2019-06-20T19:16:26.854Z,2.00
2019-06-20T19:18:55.668Z,2.00
2019-06-20T19:21:24.393Z,2.15
2019-06-20T19:23:55.458Z,2.35
2019-06-20T19:26:24.391Z,2.02
2019-06-20T19:28:53.400Z,2.08
2019-06-20T19:31:22.209Z,2.27
2019-06-20T19:33:52.103Z,2.20
2019-06-20T19:36:21.593Z,2.15
2019-06-20T19:38:50.346Z,2.17
2019-06-20T19:41:19.329Z,2.17
2019-06-20T19:43:48.101Z,2.20
2019-06-20T19:46:17.158Z,2.00
2019-06-20T19:48:46.108Z,2.00
2019-06-20T19:51:15.721Z,2.02
2019-06-20T19:53:46.020Z,2.00
2019-06-20T19:56:15.480Z,2.08
2019-06-20T19:58:44.884Z,1.90
2019-06-20T20:01:14.225Z,2.08
2019-06-20T20:03:43.318Z,1.87
2019-06-20T20:06:12.426Z,1.87
2019-06-20T20:08:43.448Z,2.62
2019-06-20T20:11:12.738Z,2.00
2019-06-20T20:13:41.542Z,2.22
2019-06-20T20:16:10.334Z,2.12
2019-06-20T20:18:40.883Z,2.42
2019-06-20T20:21:09.651Z,2.55
2019-06-20T20:23:38.479Z,2.50
2019-06-20T20:26:08.790Z,2.27
2019-06-20T20:28:37.972Z,2.40
2019-06-20T20:31:06.867Z,2.95
2019-06-20T20:33:35.843Z,2.45
2019-06-20T20:36:05.034Z,2.08
2019-06-20T20:38:33.857Z,2.65
2019-06-20T20:41:02.622Z,2.50
2019-06-20T20:43:31.619Z,2.50
2019-06-20T20:46:00.367Z,2.40
2019-06-20T20:48:29.056Z,2.08
2019-06-20T20:50:57.721Z,2.60
2019-06-20T20:53:26.728Z,2.98
2019-06-20T20:55:55.496Z,2.42
2019-06-20T20:58:24.533Z,2.70
2019-06-20T21:01:07.836Z,2.80
2019-06-20T21:03:36.842Z,2.62
2019-06-20T21:06:06.020Z,2.70
2019-06-20T21:08:34.865Z,2.65
2019-06-20T21:11:03.617Z,1.98
2019-06-20T21:13:32.662Z,2.98
2019-06-20T21:16:01.335Z,2.70
2019-06-20T21:18:30.332Z,3.00
2019-06-20T21:20:59.074Z,2.72
2019-06-20T21:23:27.807Z,3.17
2019-06-20T21:25:56.489Z,3.08
2019-06-20T21:28:25.170Z,3.27
2019-06-20T21:30:53.851Z,2.37
2019-06-20T21:33:22.583Z,2.95
2019-06-20T21:36:06.960Z,3.20
2019-06-20T21:38:21.766Z,2.80
2019-06-20T21:40:50.475Z,3.45
2019-06-20T21:43:19.160Z,2.60
2019-06-20T21:45:47.843Z,3.25
2019-06-20T21:48:16.652Z,3.30
2019-06-20T21:50:45.607Z,3.37
2019-06-20T21:55:22.822Z,3.52
2019-06-20T21:57:51.781Z,3.70
2019-06-20T22:00:26.507Z,3.22
2019-06-20T22:02:55.510Z,3.45
2019-06-20T22:05:24.275Z,3.50
2019-06-20T22:07:52.976Z,3.02
2019-06-20T22:10:21.885Z,3.12
2019-06-20T22:12:50.669Z,3.10
2019-06-20T22:15:19.838Z,3.17
2019-06-20T22:17:48.558Z,3.02
2019-06-20T22:20:18.947Z,3.52
2019-06-20T22:22:47.623Z,3.72
2019-06-20T22:25:17.679Z,3.62
2019-06-20T22:27:46.638Z,3.70
2019-06-20T22:30:16.546Z,3.72
2019-06-20T22:32:45.367Z,4.28
2019-06-20T22:35:14.283Z,4.37
2019-06-20T22:37:43.133Z,3.98
2019-06-20T22:40:14.188Z,3.90
2019-06-20T22:42:43.181Z,4.45
2019-06-20T22:45:11.984Z,4.03
2019-06-20T22:47:40.660Z,4.72
2019-06-20T22:50:09.951Z,4.87
2019-06-20T22:52:38.652Z,4.47
2019-06-20T22:55:08.023Z,4.97
2019-06-20T22:57:36.708Z,4.87
2019-06-20T23:00:06.321Z,5.10
2019-06-20T23:02:34.982Z,4.67
2019-06-20T23:05:04.211Z,4.15
2019-06-20T23:07:32.870Z,4.53
2019-06-20T23:10:10.603Z,4.92
2019-06-20T23:12:32.807Z,5.30
2019-06-20T23:15:01.496Z,4.85
2019-06-20T23:17:30.622Z,5.42
2019-06-20T23:19:59.309Z,5.15
2019-06-20T23:22:28.246Z,4.90
2019-06-20T23:24:57.612Z,5.15
2019-06-20T23:27:26.289Z,5.28
2019-06-20T23:30:14.987Z,5.35
2019-06-20T23:32:44.178Z,5.67
2019-06-20T23:35:12.951Z,6.62
2019-06-20T23:37:41.651Z,5.83
2019-06-20T23:40:10.807Z,6.65
2019-06-20T23:42:39.618Z,6.70
2019-06-20T23:45:10.167Z,6.75
2019-06-20T23:47:39.415Z,7.55
2019-06-20T23:50:12.867Z,7.60
2019-06-20T23:52:43.661Z,6.95
2019-06-20T23:55:12.621Z,7.28
2019-06-20T23:59:22.743Z,8.08
